sensor_id;sensor_type;location;lat;lon;timestamp;temperature;humidity
6843;DHT22;3460;52.028;8.916;2023-06-10T00:00:43;18.70;1.00
6843;DHT22;3460;52.028;8.916;2023-06-10T00:03:11;18.70;1.00
6843;DHT22;3460;52.028;8.916;2023-06-10T00:05:37;18.60;1.00
6843;DHT22;3460;52.028;8.916;2023-06-10T00:08:05;18.70;1.00
6843;DHT22;3460;52.028;8.916;2023-06-10T00:10:33;18.60;1.00
6843;DHT22;3460;52.028;8.916;2023-06-10T00:13:01;18.60;1.00
6843;DHT22;3460;52.028;8.916;2023-06-10T00:15:28;18.60;99.90
6843;DHT22;3460;52.028;8.916;2023-06-10T00:17:56;18.60;99.90
6843;DHT22;3460;52.028;8.916;2023-06-10T00:20:23;18.70;99.90
6843;DHT22;3460;52.028;8.916;2023-06-10T00:22:50;18.70;99.90
6843;DHT22;3460;52.028;8.916;2023-06-10T00:25:17;18.70;99.90
6843;DHT22;3460;52.028;8.916;2023-06-10T00:27:44;18.60;99.90
6843;DHT22;3460;52.028;8.916;2023-06-10T00:30:12;18.40;1.00
6843;DHT22;3460;52.028;8.916;2023-06-10T00:32:38;18.30;1.00
6843;DHT22;3460;52.028;8.916;2023-06-10T00:35:07;18.20;1.00
6843;DHT22;3460;52.028;8.916;2023-06-10T00:37:34;18.00;1.00
6843;DHT22;3460;52.028;8.916;2023-06-10T00:40:02;18.00;1.00
6843;DHT22;3460;52.028;8.916;2023-06-10T00:42:28;17.90;1.00
6843;DHT22;3460;52.028;8.916;2023-06-10T00:44:55;17.90;1.00
6843;DHT22;3460;52.028;8.916;2023-06-10T00:47:22;17.80;1.00
6843;DHT22;3460;52.028;8.916;2023-06-10T00:49:49;17.80;1.00
6843;DHT22;3460;52.028;8.916;2023-06-10T00:52:18;17.80;1.00
6843;DHT22;3460;52.028;8.916;2023-06-10T00:54:46;17.70;1.00
6843;DHT22;3460;52.028;8.916;2023-06-10T00:57:13;17.60;1.00
6843;DHT22;3460;52.028;8.916;2023-06-10T00:59:40;17.60;1.00
6843;DHT22;3460;52.028;8.916;2023-06-10T01:02:08;17.50;1.00
6843;DHT22;3460;52.028;8.916;2023-06-10T01:04:35;17.40;1.00
6843;DHT22;3460;52.028;8.916;2023-06-10T01:07:09;17.30;1.00
6843;DHT22;3460;52.028;8.916;2023-06-10T01:09:47;17.20;1.00
6843;DHT22;3460;52.028;8.916;2023-06-10T01:12:20;17.20;1.00
6843;DHT22;3460;52.028;8.916;2023-06-10T01:14:47;17.10;1.00
6843;DHT22;3460;52.028;8.916;2023-06-10T01:17:17;17.20;1.00
6843;DHT22;3460;52.028;8.916;2023-06-10T01:19:44;17.10;1.00
6843;DHT22;3460;52.028;8.916;2023-06-10T01:22:12;17.00;1.30
6843;DHT22;3460;52.028;8.916;2023-06-10T01:24:41;16.90;1.00
6843;DHT22;3460;52.028;8.916;2023-06-10T01:27:13;16.80;99.90
6843;DHT22;3460;52.028;8.916;2023-06-10T01:29:45;16.70;99.90
6843;DHT22;3460;52.028;8.916;2023-06-10T01:32:17;16.70;50.40
6843;DHT22;3460;52.028;8.916;2023-06-10T01:34:45;16.60;42.40
6843;DHT22;3460;52.028;8.916;2023-06-10T01:37:17;16.70;65.60
6843;DHT22;3460;52.028;8.916;2023-06-10T01:39:45;16.60;41.80
6843;DHT22;3460;52.028;8.916;2023-06-10T01:42:13;16.50;86.20
6843;DHT22;3460;52.028;8.916;2023-06-10T01:44:40;16.50;88.70
6843;DHT22;3460;52.028;8.916;2023-06-10T01:47:07;16.60;55.10
6843;DHT22;3460;52.028;8.916;2023-06-10T01:49:34;16.60;71.20
6843;DHT22;3460;52.028;8.916;2023-06-10T01:52:01;16.40;95.60
6843;DHT22;3460;52.028;8.916;2023-06-10T01:54:29;16.30;99.30
6843;DHT22;3460;52.028;8.916;2023-06-10T01:56:56;16.10;99.90
6843;DHT22;3460;52.028;8.916;2023-06-10T01:59:23;16.10;99.90
6843;DHT22;3460;52.028;8.916;2023-06-10T02:01:50;16.10;99.90
6843;DHT22;3460;52.028;8.916;2023-06-10T02:04:17;16.10;99.90
6843;DHT22;3460;52.028;8.916;2023-06-10T02:06:44;16.00;99.90
6843;DHT22;3460;52.028;8.916;2023-06-10T02:09:11;16.00;99.90
6843;DHT22;3460;52.028;8.916;2023-06-10T02:11:39;15.80;99.90
6843;DHT22;3460;52.028;8.916;2023-06-10T02:14:05;15.70;99.90
6843;DHT22;3460;52.028;8.916;2023-06-10T02:16:32;15.60;99.90
6843;DHT22;3460;52.028;8.916;2023-06-10T02:18:59;15.60;99.90
6843;DHT22;3460;52.028;8.916;2023-06-10T02:21:26;15.50;99.90
6843;DHT22;3460;52.028;8.916;2023-06-10T02:23:53;15.40;99.90
6843;DHT22;3460;52.028;8.916;2023-06-10T02:26:19;15.40;99.90
6843;DHT22;3460;52.028;8.916;2023-06-10T02:28:48;15.30;99.90
6843;DHT22;3460;52.028;8.916;2023-06-10T02:31:14;15.20;99.90
6843;DHT22;3460;52.028;8.916;2023-06-10T02:33:43;15.20;99.90
6843;DHT22;3460;52.028;8.916;2023-06-10T02:36:10;15.30;99.90
6843;DHT22;3460;52.028;8.916;2023-06-10T02:38:38;15.20;99.90
6843;DHT22;3460;52.028;8.916;2023-06-10T02:41:05;15.10;99.90
6843;DHT22;3460;52.028;8.916;2023-06-10T02:43:32;15.00;99.90
6843;DHT22;3460;52.028;8.916;2023-06-10T02:46:00;15.10;99.90
6843;DHT22;3460;52.028;8.916;2023-06-10T02:48:28;15.10;99.90
6843;DHT22;3460;52.028;8.916;2023-06-10T02:50:54;15.10;99.90
6843;DHT22;3460;52.028;8.916;2023-06-10T02:53:22;15.00;99.90
6843;DHT22;3460;52.028;8.916;2023-06-10T02:55:49;15.10;99.90
6843;DHT22;3460;52.028;8.916;2023-06-10T02:58:16;15.10;99.90
6843;DHT22;3460;52.028;8.916;2023-06-10T03:00:42;14.90;99.90
6843;DHT22;3460;52.028;8.916;2023-06-10T03:03:11;14.90;99.90
6843;DHT22;3460;52.028;8.916;2023-06-10T03:05:38;14.70;99.90
6843;DHT22;3460;52.028;8.916;2023-06-10T03:08:05;14.70;99.90
6843;DHT22;3460;52.028;8.916;2023-06-10T03:10:32;14.70;99.90
6843;DHT22;3460;52.028;8.916;2023-06-10T03:12:59;14.60;99.90
6843;DHT22;3460;52.028;8.916;2023-06-10T03:15:26;14.50;99.90
6843;DHT22;3460;52.028;8.916;2023-06-10T03:17:54;14.40;99.90
6843;DHT22;3460;52.028;8.916;2023-06-10T03:20:22;14.40;99.90
6843;DHT22;3460;52.028;8.916;2023-06-10T03:22:51;14.40;99.90
6843;DHT22;3460;52.028;8.916;2023-06-10T03:25:18;14.50;99.90
6843;DHT22;3460;52.028;8.916;2023-06-10T03:27:46;14.50;99.90
6843;DHT22;3460;52.028;8.916;2023-06-10T03:30:14;14.50;99.90
6843;DHT22;3460;52.028;8.916;2023-06-10T03:32:41;14.40;99.90
6843;DHT22;3460;52.028;8.916;2023-06-10T03:35:08;14.40;99.90
6843;DHT22;3460;52.028;8.916;2023-06-10T03:37:36;14.40;99.90
6843;DHT22;3460;52.028;8.916;2023-06-10T03:40:04;14.40;99.90
6843;DHT22;3460;52.028;8.916;2023-06-10T03:42:31;14.30;99.90
6843;DHT22;3460;52.028;8.916;2023-06-10T03:44:58;14.30;99.90
6843;DHT22;3460;52.028;8.916;2023-06-10T03:47:25;14.30;99.90
6843;DHT22;3460;52.028;8.916;2023-06-10T03:49:51;14.30;99.90
6843;DHT22;3460;52.028;8.916;2023-06-10T03:52:19;14.30;99.90
6843;DHT22;3460;52.028;8.916;2023-06-10T03:54:47;14.30;99.90
6843;DHT22;3460;52.028;8.916;2023-06-10T03:57:14;14.30;99.90
6843;DHT22;3460;52.028;8.916;2023-06-10T03:59:43;14.30;99.90
6843;DHT22;3460;52.028;8.916;2023-06-10T04:02:10;14.30;99.90
6843;DHT22;3460;52.028;8.916;2023-06-10T04:04:37;14.40;99.90
6843;DHT22;3460;52.028;8.916;2023-06-10T04:07:04;14.60;99.90
6843;DHT22;3460;52.028;8.916;2023-06-10T04:09:31;15.10;99.90
6843;DHT22;3460;52.028;8.916;2023-06-10T04:12:00;15.60;99.90
6843;DHT22;3460;52.028;8.916;2023-06-10T04:14:27;16.10;67.80
6843;DHT22;3460;52.028;8.916;2023-06-10T04:16:54;16.40;25.40
6843;DHT22;3460;52.028;8.916;2023-06-10T04:19:21;16.60;59.80
6843;DHT22;3460;52.028;8.916;2023-06-10T04:21:51;16.80;12.60
6843;DHT22;3460;52.028;8.916;2023-06-10T04:24:18;17.00;1.00
6843;DHT22;3460;52.028;8.916;2023-06-10T04:26:44;17.30;1.00
6843;DHT22;3460;52.028;8.916;2023-06-10T04:29:13;17.70;1.00
6843;DHT22;3460;52.028;8.916;2023-06-10T04:31:39;18.10;1.00
6843;DHT22;3460;52.028;8.916;2023-06-10T04:34:06;18.30;1.00
6843;DHT22;3460;52.028;8.916;2023-06-10T04:36:33;18.30;1.00
6843;DHT22;3460;52.028;8.916;2023-06-10T04:39:00;18.30;1.00
6843;DHT22;3460;52.028;8.916;2023-06-10T04:41:27;18.30;1.00
6843;DHT22;3460;52.028;8.916;2023-06-10T04:43:54;18.10;1.00
6843;DHT22;3460;52.028;8.916;2023-06-10T04:46:22;17.90;1.00
6843;DHT22;3460;52.028;8.916;2023-06-10T04:48:49;17.80;1.00
6843;DHT22;3460;52.028;8.916;2023-06-10T04:51:16;17.70;1.00
6843;DHT22;3460;52.028;8.916;2023-06-10T04:53:43;17.50;1.00
6843;DHT22;3460;52.028;8.916;2023-06-10T04:56:10;17.30;1.00
6843;DHT22;3460;52.028;8.916;2023-06-10T04:58:37;17.50;1.00
6843;DHT22;3460;52.028;8.916;2023-06-10T05:01:03;17.40;1.00
6843;DHT22;3460;52.028;8.916;2023-06-10T05:03:32;17.30;1.00
6843;DHT22;3460;52.028;8.916;2023-06-10T05:05:58;17.20;1.00
6843;DHT22;3460;52.028;8.916;2023-06-10T05:08:25;17.20;1.00
6843;DHT22;3460;52.028;8.916;2023-06-10T05:10:52;17.30;1.00
6843;DHT22;3460;52.028;8.916;2023-06-10T05:13:19;17.50;1.00
6843;DHT22;3460;52.028;8.916;2023-06-10T05:15:46;17.60;1.00
6843;DHT22;3460;52.028;8.916;2023-06-10T05:18:13;17.50;1.00
6843;DHT22;3460;52.028;8.916;2023-06-10T05:20:42;17.40;1.00
6843;DHT22;3460;52.028;8.916;2023-06-10T05:23:08;17.60;1.00
6843;DHT22;3460;52.028;8.916;2023-06-10T05:25:35;17.50;1.00
6843;DHT22;3460;52.028;8.916;2023-06-10T05:28:02;17.60;9.40
6843;DHT22;3460;52.028;8.916;2023-06-10T05:30:29;17.60;1.00
6843;DHT22;3460;52.028;8.916;2023-06-10T05:32:56;17.60;1.00
6843;DHT22;3460;52.028;8.916;2023-06-10T05:35:23;17.60;1.00
6843;DHT22;3460;52.028;8.916;2023-06-10T05:37:51;17.40;1.00
6843;DHT22;3460;52.028;8.916;2023-06-10T05:40:18;17.40;32.60
6843;DHT22;3460;52.028;8.916;2023-06-10T05:42:45;17.40;10.20
6843;DHT22;3460;52.028;8.916;2023-06-10T05:45:12;17.40;18.60
6843;DHT22;3460;52.028;8.916;2023-06-10T05:47:39;17.50;49.20
6843;DHT22;3460;52.028;8.916;2023-06-10T05:50:07;17.60;23.50
6843;DHT22;3460;52.028;8.916;2023-06-10T05:52:34;17.60;21.50
6843;DHT22;3460;52.028;8.916;2023-06-10T05:55:03;17.70;1.00
6843;DHT22;3460;52.028;8.916;2023-06-10T05:57:30;17.80;1.00
6843;DHT22;3460;52.028;8.916;2023-06-10T05:59:57;17.70;1.00
6843;DHT22;3460;52.028;8.916;2023-06-10T06:02:24;17.70;1.00
6843;DHT22;3460;52.028;8.916;2023-06-10T06:04:51;17.70;1.00
6843;DHT22;3460;52.028;8.916;2023-06-10T06:07:18;17.70;9.00
6843;DHT22;3460;52.028;8.916;2023-06-10T06:09:46;17.70;1.00
6843;DHT22;3460;52.028;8.916;2023-06-10T06:12:14;17.90;1.00
6843;DHT22;3460;52.028;8.916;2023-06-10T06:14:41;18.00;1.00
6843;DHT22;3460;52.028;8.916;2023-06-10T06:17:08;18.10;1.00
6843;DHT22;3460;52.028;8.916;2023-06-10T06:19:34;18.00;1.00
6843;DHT22;3460;52.028;8.916;2023-06-10T06:22:01;18.10;1.00
6843;DHT22;3460;52.028;8.916;2023-06-10T06:24:28;18.10;1.00
6843;DHT22;3460;52.028;8.916;2023-06-10T06:26:56;18.20;6.20
6843;DHT22;3460;52.028;8.916;2023-06-10T06:29:24;18.40;1.00
6843;DHT22;3460;52.028;8.916;2023-06-10T06:31:51;18.70;1.00
6843;DHT22;3460;52.028;8.916;2023-06-10T06:34:18;18.70;1.00
6843;DHT22;3460;52.028;8.916;2023-06-10T06:36:44;18.80;1.00
6843;DHT22;3460;52.028;8.916;2023-06-10T06:39:11;18.90;1.00
6843;DHT22;3460;52.028;8.916;2023-06-10T06:41:39;18.90;1.00
6843;DHT22;3460;52.028;8.916;2023-06-10T06:44:06;19.00;1.00
6843;DHT22;3460;52.028;8.916;2023-06-10T06:46:34;18.90;1.00
6843;DHT22;3460;52.028;8.916;2023-06-10T06:49:00;18.90;1.00
6843;DHT22;3460;52.028;8.916;2023-06-10T06:51:27;19.00;1.00
6843;DHT22;3460;52.028;8.916;2023-06-10T06:53:54;19.00;1.00
6843;DHT22;3460;52.028;8.916;2023-06-10T06:56:24;19.00;1.00
6843;DHT22;3460;52.028;8.916;2023-06-10T06:58:52;19.20;1.00
6843;DHT22;3460;52.028;8.916;2023-06-10T07:01:18;19.40;1.00
6843;DHT22;3460;52.028;8.916;2023-06-10T07:03:49;19.40;1.00
6843;DHT22;3460;52.028;8.916;2023-06-10T07:06:16;19.50;1.00
6843;DHT22;3460;52.028;8.916;2023-06-10T07:08:43;19.60;1.00
6843;DHT22;3460;52.028;8.916;2023-06-10T07:11:10;19.70;1.00
6843;DHT22;3460;52.028;8.916;2023-06-10T07:13:37;19.70;1.00
6843;DHT22;3460;52.028;8.916;2023-06-10T07:16:04;19.90;1.00
6843;DHT22;3460;52.028;8.916;2023-06-10T07:18:30;19.90;1.00
6843;DHT22;3460;52.028;8.916;2023-06-10T07:20:59;20.20;1.00
6843;DHT22;3460;52.028;8.916;2023-06-10T07:23:25;20.30;99.90
6843;DHT22;3460;52.028;8.916;2023-06-10T07:25:54;20.40;1.00
6843;DHT22;3460;52.028;8.916;2023-06-10T07:28:21;20.60;99.90
6843;DHT22;3460;52.028;8.916;2023-06-10T07:30:47;20.70;1.00
6843;DHT22;3460;52.028;8.916;2023-06-10T07:33:14;20.60;1.00
6843;DHT22;3460;52.028;8.916;2023-06-10T07:35:41;20.70;1.00
6843;DHT22;3460;52.028;8.916;2023-06-10T07:38:10;20.90;1.00
6843;DHT22;3460;52.028;8.916;2023-06-10T07:40:37;20.90;1.00
6843;DHT22;3460;52.028;8.916;2023-06-10T07:43:03;21.00;1.00
6843;DHT22;3460;52.028;8.916;2023-06-10T07:45:30;21.20;1.00
6843;DHT22;3460;52.028;8.916;2023-06-10T07:47:57;21.20;1.00
6843;DHT22;3460;52.028;8.916;2023-06-10T07:50:24;21.30;99.90
6843;DHT22;3460;52.028;8.916;2023-06-10T07:52:51;21.80;99.90
6843;DHT22;3460;52.028;8.916;2023-06-10T07:55:19;21.90;99.90
6843;DHT22;3460;52.028;8.916;2023-06-10T07:57:46;21.90;99.90
6843;DHT22;3460;52.028;8.916;2023-06-10T08:00:13;21.90;99.90
6843;DHT22;3460;52.028;8.916;2023-06-10T08:02:40;22.00;99.90
6843;DHT22;3460;52.028;8.916;2023-06-10T08:05:07;22.20;99.90
6843;DHT22;3460;52.028;8.916;2023-06-10T08:07:36;22.30;99.90
6843;DHT22;3460;52.028;8.916;2023-06-10T08:10:03;22.30;99.90
6843;DHT22;3460;52.028;8.916;2023-06-10T08:12:32;22.50;99.90
6843;DHT22;3460;52.028;8.916;2023-06-10T08:14:59;22.60;99.90
6843;DHT22;3460;52.028;8.916;2023-06-10T08:17:25;22.80;99.90
6843;DHT22;3460;52.028;8.916;2023-06-10T08:19:54;22.90;99.90
6843;DHT22;3460;52.028;8.916;2023-06-10T08:22:20;23.20;99.90
6843;DHT22;3460;52.028;8.916;2023-06-10T08:24:47;23.40;99.90
6843;DHT22;3460;52.028;8.916;2023-06-10T08:27:14;23.60;99.90
6843;DHT22;3460;52.028;8.916;2023-06-10T08:29:42;23.70;99.90
6843;DHT22;3460;52.028;8.916;2023-06-10T08:32:09;24.00;57.70
6843;DHT22;3460;52.028;8.916;2023-06-10T08:34:36;24.10;54.80
6843;DHT22;3460;52.028;8.916;2023-06-10T08:37:04;24.20;1.00
6843;DHT22;3460;52.028;8.916;2023-06-10T08:39:31;24.40;1.00
6843;DHT22;3460;52.028;8.916;2023-06-10T08:42:05;24.40;7.40
6843;DHT22;3460;52.028;8.916;2023-06-10T08:44:37;24.40;1.00
6843;DHT22;3460;52.028;8.916;2023-06-10T08:47:10;24.40;1.00
6843;DHT22;3460;52.028;8.916;2023-06-10T08:49:45;24.50;1.00
6843;DHT22;3460;52.028;8.916;2023-06-10T08:52:15;24.70;1.00
6843;DHT22;3460;52.028;8.916;2023-06-10T08:54:43;24.50;1.00
6843;DHT22;3460;52.028;8.916;2023-06-10T08:57:13;24.40;1.00
6843;DHT22;3460;52.028;8.916;2023-06-10T08:59:41;24.30;1.00
6843;DHT22;3460;52.028;8.916;2023-06-10T09:02:10;24.20;1.00
6843;DHT22;3460;52.028;8.916;2023-06-10T09:04:37;24.30;25.60
6843;DHT22;3460;52.028;8.916;2023-06-10T09:07:05;24.50;53.10
6843;DHT22;3460;52.028;8.916;2023-06-10T09:09:34;24.60;1.00
6843;DHT22;3460;52.028;8.916;2023-06-10T09:12:02;24.80;1.00
6843;DHT22;3460;52.028;8.916;2023-06-10T09:14:30;24.90;1.00
6843;DHT22;3460;52.028;8.916;2023-06-10T09:16:56;24.40;1.00
6843;DHT22;3460;52.028;8.916;2023-06-10T09:19:25;24.50;1.00
6843;DHT22;3460;52.028;8.916;2023-06-10T09:21:53;24.40;1.00
6843;DHT22;3460;52.028;8.916;2023-06-10T09:24:22;24.40;1.00
6843;DHT22;3460;52.028;8.916;2023-06-10T09:26:49;24.60;1.00
6843;DHT22;3460;52.028;8.916;2023-06-10T09:29:18;24.70;1.00
6843;DHT22;3460;52.028;8.916;2023-06-10T09:31:45;24.90;1.00
6843;DHT22;3460;52.028;8.916;2023-06-10T09:34:13;25.10;1.00
6843;DHT22;3460;52.028;8.916;2023-06-10T09:36:42;24.90;1.00
6843;DHT22;3460;52.028;8.916;2023-06-10T09:39:15;24.80;1.00
6843;DHT22;3460;52.028;8.916;2023-06-10T09:41:42;24.90;1.00
6843;DHT22;3460;52.028;8.916;2023-06-10T09:44:12;24.70;1.00
6843;DHT22;3460;52.028;8.916;2023-06-10T09:46:40;24.90;1.00
6843;DHT22;3460;52.028;8.916;2023-06-10T09:49:07;25.10;1.00
6843;DHT22;3460;52.028;8.916;2023-06-10T09:51:33;25.30;1.00
6843;DHT22;3460;52.028;8.916;2023-06-10T09:54:03;25.10;1.00
6843;DHT22;3460;52.028;8.916;2023-06-10T09:56:34;25.20;1.00
6843;DHT22;3460;52.028;8.916;2023-06-10T09:59:02;25.30;1.00
6843;DHT22;3460;52.028;8.916;2023-06-10T10:01:32;25.50;1.00
6843;DHT22;3460;52.028;8.916;2023-06-10T10:03:59;25.60;1.00
6843;DHT22;3460;52.028;8.916;2023-06-10T10:06:26;25.30;1.00
6843;DHT22;3460;52.028;8.916;2023-06-10T10:08:54;25.20;1.00
6843;DHT22;3460;52.028;8.916;2023-06-10T10:11:23;25.20;1.00
6843;DHT22;3460;52.028;8.916;2023-06-10T10:13:52;25.20;1.00
6843;DHT22;3460;52.028;8.916;2023-06-10T10:16:21;25.20;1.00
6843;DHT22;3460;52.028;8.916;2023-06-10T10:18:54;25.20;1.00
6843;DHT22;3460;52.028;8.916;2023-06-10T10:21:24;25.30;1.00
6843;DHT22;3460;52.028;8.916;2023-06-10T10:23:56;25.60;1.00
6843;DHT22;3460;52.028;8.916;2023-06-10T10:26:27;25.60;1.00
6843;DHT22;3460;52.028;8.916;2023-06-10T10:29:05;25.50;1.00
6843;DHT22;3460;52.028;8.916;2023-06-10T10:31:35;25.40;1.00
6843;DHT22;3460;52.028;8.916;2023-06-10T10:34:07;25.50;1.00
6843;DHT22;3460;52.028;8.916;2023-06-10T10:36:35;25.60;1.00
6843;DHT22;3460;52.028;8.916;2023-06-10T10:39:04;25.60;1.00
6843;DHT22;3460;52.028;8.916;2023-06-10T10:41:33;25.50;1.00
6843;DHT22;3460;52.028;8.916;2023-06-10T10:44:01;25.60;99.90
6843;DHT22;3460;52.028;8.916;2023-06-10T10:46:28;25.70;99.90
6843;DHT22;3460;52.028;8.916;2023-06-10T10:48:56;25.80;99.90
6843;DHT22;3460;52.028;8.916;2023-06-10T10:51:24;25.90;99.90
6843;DHT22;3460;52.028;8.916;2023-06-10T10:54:10;26.10;99.90
6843;DHT22;3460;52.028;8.916;2023-06-10T10:59:21;26.40;99.90
6843;DHT22;3460;52.028;8.916;2023-06-10T11:01:49;26.40;99.90
6843;DHT22;3460;52.028;8.916;2023-06-10T11:04:18;26.50;99.90
6843;DHT22;3460;52.028;8.916;2023-06-10T11:06:52;26.40;99.90
6843;DHT22;3460;52.028;8.916;2023-06-10T11:09:26;26.50;99.90
6843;DHT22;3460;52.028;8.916;2023-06-10T11:11:56;26.30;99.90
6843;DHT22;3460;52.028;8.916;2023-06-10T11:14:26;26.40;99.90
6843;DHT22;3460;52.028;8.916;2023-06-10T11:16:57;26.60;99.90
6843;DHT22;3460;52.028;8.916;2023-06-10T11:19:33;26.40;99.90
6843;DHT22;3460;52.028;8.916;2023-06-10T11:22:02;26.10;99.90
6843;DHT22;3460;52.028;8.916;2023-06-10T11:24:29;26.20;99.90
6843;DHT22;3460;52.028;8.916;2023-06-10T11:30:18;26.10;99.90
6843;DHT22;3460;52.028;8.916;2023-06-10T11:32:45;26.10;99.90
6843;DHT22;3460;52.028;8.916;2023-06-10T11:35:18;26.20;99.90
6843;DHT22;3460;52.028;8.916;2023-06-10T11:37:46;26.30;99.90
6843;DHT22;3460;52.028;8.916;2023-06-10T11:40:13;26.10;99.90
6843;DHT22;3460;52.028;8.916;2023-06-10T11:42:40;26.10;99.90
6843;DHT22;3460;52.028;8.916;2023-06-10T11:45:15;26.30;99.90
6843;DHT22;3460;52.028;8.916;2023-06-10T11:47:56;26.30;99.90
6843;DHT22;3460;52.028;8.916;2023-06-10T11:50:30;26.40;99.90
6843;DHT22;3460;52.028;8.916;2023-06-10T11:52:57;26.50;99.90
6843;DHT22;3460;52.028;8.916;2023-06-10T11:55:25;26.50;99.90
6843;DHT22;3460;52.028;8.916;2023-06-10T11:57:52;26.40;99.90
6843;DHT22;3460;52.028;8.916;2023-06-10T12:00:24;26.40;99.90
6843;DHT22;3460;52.028;8.916;2023-06-10T12:02:57;26.50;99.90
6843;DHT22;3460;52.028;8.916;2023-06-10T12:05:24;26.40;99.90
6843;DHT22;3460;52.028;8.916;2023-06-10T12:08:09;26.10;99.90
6843;DHT22;3460;52.028;8.916;2023-06-10T12:10:40;26.10;99.90
6843;DHT22;3460;52.028;8.916;2023-06-10T12:13:08;25.90;99.90
6843;DHT22;3460;52.028;8.916;2023-06-10T12:15:36;26.10;99.90
6843;DHT22;3460;52.028;8.916;2023-06-10T12:18:04;26.20;99.90
6843;DHT22;3460;52.028;8.916;2023-06-10T12:20:32;26.20;99.90
6843;DHT22;3460;52.028;8.916;2023-06-10T12:22:59;26.00;99.90
6843;DHT22;3460;52.028;8.916;2023-06-10T12:25:27;26.10;99.90
6843;DHT22;3460;52.028;8.916;2023-06-10T12:27:56;26.20;99.90
6843;DHT22;3460;52.028;8.916;2023-06-10T12:30:25;26.50;99.90
6843;DHT22;3460;52.028;8.916;2023-06-10T12:32:54;26.40;99.90
6843;DHT22;3460;52.028;8.916;2023-06-10T12:35:22;26.60;99.90
6843;DHT22;3460;52.028;8.916;2023-06-10T12:37:57;26.60;99.90
6843;DHT22;3460;52.028;8.916;2023-06-10T12:40:27;26.60;99.90
6843;DHT22;3460;52.028;8.916;2023-06-10T12:42:54;26.70;99.90
6843;DHT22;3460;52.028;8.916;2023-06-10T12:45:26;26.50;99.90
6843;DHT22;3460;52.028;8.916;2023-06-10T12:48:06;26.50;99.90
6843;DHT22;3460;52.028;8.916;2023-06-10T12:50:34;26.50;99.90
6843;DHT22;3460;52.028;8.916;2023-06-10T12:53:02;26.50;99.90
6843;DHT22;3460;52.028;8.916;2023-06-10T12:55:29;26.70;99.90
6843;DHT22;3460;52.028;8.916;2023-06-10T12:57:56;26.60;99.90
6843;DHT22;3460;52.028;8.916;2023-06-10T13:00:23;26.70;1.00
6843;DHT22;3460;52.028;8.916;2023-06-10T13:02:51;26.70;99.90
6843;DHT22;3460;52.028;8.916;2023-06-10T13:05:20;26.60;99.90
6843;DHT22;3460;52.028;8.916;2023-06-10T13:07:47;26.70;1.00
6843;DHT22;3460;52.028;8.916;2023-06-10T13:10:14;26.80;1.00
6843;DHT22;3460;52.028;8.916;2023-06-10T13:12:41;26.70;1.00
6843;DHT22;3460;52.028;8.916;2023-06-10T13:15:09;26.70;1.00
6843;DHT22;3460;52.028;8.916;2023-06-10T13:17:36;26.80;99.90
6843;DHT22;3460;52.028;8.916;2023-06-10T13:20:03;26.80;99.90
6843;DHT22;3460;52.028;8.916;2023-06-10T13:22:32;26.70;99.90
6843;DHT22;3460;52.028;8.916;2023-06-10T13:25:00;26.50;99.90
6843;DHT22;3460;52.028;8.916;2023-06-10T13:27:28;26.70;99.90
6843;DHT22;3460;52.028;8.916;2023-06-10T13:29:55;26.90;99.90
6843;DHT22;3460;52.028;8.916;2023-06-10T13:32:22;26.70;99.90
6843;DHT22;3460;52.028;8.916;2023-06-10T13:34:49;26.60;99.90
6843;DHT22;3460;52.028;8.916;2023-06-10T13:37:15;26.90;99.90
6843;DHT22;3460;52.028;8.916;2023-06-10T13:39:44;26.90;99.90
6843;DHT22;3460;52.028;8.916;2023-06-10T13:42:12;26.80;99.90
6843;DHT22;3460;52.028;8.916;2023-06-10T13:44:39;26.90;99.90
6843;DHT22;3460;52.028;8.916;2023-06-10T13:47:06;26.90;99.90
6843;DHT22;3460;52.028;8.916;2023-06-10T13:49:33;26.90;99.90
6843;DHT22;3460;52.028;8.916;2023-06-10T13:52:01;26.70;99.90
6843;DHT22;3460;52.028;8.916;2023-06-10T13:54:27;26.70;94.90
6843;DHT22;3460;52.028;8.916;2023-06-10T13:56:56;26.80;99.90
6843;DHT22;3460;52.028;8.916;2023-06-10T13:59:23;26.90;99.90
6843;DHT22;3460;52.028;8.916;2023-06-10T14:01:49;27.00;99.90
6843;DHT22;3460;52.028;8.916;2023-06-10T14:04:16;26.90;99.90
6843;DHT22;3460;52.028;8.916;2023-06-10T14:06:45;27.00;99.90
6843;DHT22;3460;52.028;8.916;2023-06-10T14:09:13;27.10;99.90
6843;DHT22;3460;52.028;8.916;2023-06-10T14:11:40;27.10;99.90
6843;DHT22;3460;52.028;8.916;2023-06-10T14:14:08;27.00;99.90
6843;DHT22;3460;52.028;8.916;2023-06-10T14:16:35;27.00;99.90
6843;DHT22;3460;52.028;8.916;2023-06-10T14:19:02;27.10;99.90
6843;DHT22;3460;52.028;8.916;2023-06-10T14:21:29;27.00;99.90
6843;DHT22;3460;52.028;8.916;2023-06-10T14:23:56;27.10;99.90
6843;DHT22;3460;52.028;8.916;2023-06-10T14:26:23;27.10;99.90
6843;DHT22;3460;52.028;8.916;2023-06-10T14:28:51;27.20;43.50
6843;DHT22;3460;52.028;8.916;2023-06-10T14:31:20;27.20;1.00
6843;DHT22;3460;52.028;8.916;2023-06-10T14:33:46;27.10;99.90
6843;DHT22;3460;52.028;8.916;2023-06-10T14:36:13;27.00;44.40
6843;DHT22;3460;52.028;8.916;2023-06-10T14:38:40;27.00;99.90
6843;DHT22;3460;52.028;8.916;2023-06-10T14:41:07;27.10;76.40
6843;DHT22;3460;52.028;8.916;2023-06-10T14:43:33;27.20;44.30
6843;DHT22;3460;52.028;8.916;2023-06-10T14:46:00;27.10;22.90
6843;DHT22;3460;52.028;8.916;2023-06-10T14:48:28;27.20;97.40
6843;DHT22;3460;52.028;8.916;2023-06-10T14:50:55;27.20;99.90
6843;DHT22;3460;52.028;8.916;2023-06-10T14:53:22;27.30;99.90
6843;DHT22;3460;52.028;8.916;2023-06-10T14:55:49;27.20;99.90
6843;DHT22;3460;52.028;8.916;2023-06-10T14:58:16;27.20;99.90
6843;DHT22;3460;52.028;8.916;2023-06-10T15:00:43;27.20;99.90
6843;DHT22;3460;52.028;8.916;2023-06-10T15:03:10;27.40;99.90
6843;DHT22;3460;52.028;8.916;2023-06-10T15:05:38;27.40;99.90
6843;DHT22;3460;52.028;8.916;2023-06-10T15:08:05;27.50;83.30
6843;DHT22;3460;52.028;8.916;2023-06-10T15:10:32;27.50;99.90
6843;DHT22;3460;52.028;8.916;2023-06-10T15:12:58;27.50;99.90
6843;DHT22;3460;52.028;8.916;2023-06-10T15:15:25;27.40;99.90
6843;DHT22;3460;52.028;8.916;2023-06-10T15:17:52;27.20;99.90
6843;DHT22;3460;52.028;8.916;2023-06-10T15:20:19;27.30;99.90
6843;DHT22;3460;52.028;8.916;2023-06-10T15:22:48;27.30;99.90
6843;DHT22;3460;52.028;8.916;2023-06-10T15:25:14;27.40;99.90
6843;DHT22;3460;52.028;8.916;2023-06-10T15:27:41;27.40;1.00
6843;DHT22;3460;52.028;8.916;2023-06-10T15:30:09;27.40;99.90
6843;DHT22;3460;52.028;8.916;2023-06-10T15:32:35;27.40;1.00
6843;DHT22;3460;52.028;8.916;2023-06-10T15:35:02;27.40;1.00
6843;DHT22;3460;52.028;8.916;2023-06-10T15:37:29;27.50;1.00
6843;DHT22;3460;52.028;8.916;2023-06-10T15:39:57;27.40;1.00
6843;DHT22;3460;52.028;8.916;2023-06-10T15:42:24;27.50;99.90
6843;DHT22;3460;52.028;8.916;2023-06-10T15:44:51;27.60;99.90
6843;DHT22;3460;52.028;8.916;2023-06-10T15:47:18;27.60;99.90
6843;DHT22;3460;52.028;8.916;2023-06-10T15:49:45;27.60;1.00
6843;DHT22;3460;52.028;8.916;2023-06-10T15:52:12;27.50;99.90
6843;DHT22;3460;52.028;8.916;2023-06-10T15:54:39;27.50;1.00
6843;DHT22;3460;52.028;8.916;2023-06-10T15:57:07;27.40;99.90
6843;DHT22;3460;52.028;8.916;2023-06-10T15:59:34;27.50;1.00
6843;DHT22;3460;52.028;8.916;2023-06-10T16:02:01;27.40;99.90
6843;DHT22;3460;52.028;8.916;2023-06-10T16:04:29;27.30;48.60
6843;DHT22;3460;52.028;8.916;2023-06-10T16:06:56;27.40;99.90
6843;DHT22;3460;52.028;8.916;2023-06-10T16:09:23;27.30;99.90
6843;DHT22;3460;52.028;8.916;2023-06-10T16:11:50;27.40;7.50
6843;DHT22;3460;52.028;8.916;2023-06-10T16:14:18;27.40;1.00
6843;DHT22;3460;52.028;8.916;2023-06-10T16:16:45;27.40;99.90
6843;DHT22;3460;52.028;8.916;2023-06-10T16:19:12;27.40;1.00